createdAt,value
2018-06-30T00:01:21.959Z,13.80
2018-06-30T00:03:53.842Z,13.70
2018-06-30T00:06:23.971Z,13.80
2018-06-30T00:08:52.862Z,13.70
2018-06-30T00:11:21.544Z,13.70
2018-06-30T00:13:50.130Z,13.70
2018-06-30T00:16:18.648Z,13.70
2018-06-30T00:18:47.228Z,13.70
2018-06-30T00:21:15.867Z,13.60
2018-06-30T00:23:44.356Z,13.60
2018-06-30T00:26:13.316Z,13.50
2018-06-30T00:28:41.861Z,13.50
2018-06-30T00:31:10.336Z,13.60
2018-06-30T00:33:38.899Z,13.60
2018-06-30T00:36:07.539Z,13.40
2018-06-30T00:38:36.039Z,13.40
2018-06-30T00:41:04.622Z,13.30
2018-06-30T00:43:33.997Z,13.40
2018-06-30T00:46:02.596Z,13.40
2018-06-30T00:48:31.383Z,13.30
2018-06-30T00:50:59.983Z,13.30
2018-06-30T00:53:28.924Z,13.30
2018-06-30T00:55:57.535Z,13.20
2018-06-30T00:58:26.147Z,13.20
2018-06-30T01:00:54.715Z,13.30
2018-06-30T01:03:23.921Z,13.20
2018-06-30T01:05:53.318Z,13.20
2018-06-30T01:08:22.198Z,13.20
2018-06-30T01:10:50.783Z,13.20
2018-06-30T01:13:19.502Z,13.20
2018-06-30T01:15:48.048Z,13.20
2018-06-30T01:18:16.496Z,13.10
2018-06-30T01:20:45.208Z,13.00
2018-06-30T01:23:13.766Z,13.00
2018-06-30T01:25:43.188Z,12.90
2018-06-30T01:28:11.642Z,12.90
2018-06-30T01:30:40.372Z,12.90
2018-06-30T01:33:08.938Z,12.80
2018-06-30T01:35:37.696Z,12.70
2018-06-30T01:38:06.282Z,12.70
2018-06-30T01:40:34.999Z,12.70
2018-06-30T01:43:03.571Z,12.60
2018-06-30T01:45:32.326Z,12.50
2018-06-30T01:48:01.147Z,12.50
2018-06-30T01:50:29.599Z,12.40
2018-06-30T01:52:58.088Z,12.30
2018-06-30T01:55:26.779Z,12.40
2018-06-30T01:57:56.196Z,12.50
2018-06-30T02:00:24.694Z,12.50
2018-06-30T02:02:53.635Z,12.40
2018-06-30T02:05:22.292Z,12.30
2018-06-30T02:07:50.848Z,12.30
2018-06-30T02:12:47.867Z,12.30
2018-06-30T02:15:16.573Z,12.30
2018-06-30T02:17:45.086Z,12.20
2018-06-30T02:20:13.856Z,12.20
2018-06-30T02:22:42.275Z,12.20
2018-06-30T02:25:10.814Z,12.30
2018-06-30T02:27:39.660Z,12.20
2018-06-30T02:30:08.363Z,12.20
2018-06-30T02:32:36.958Z,12.20
2018-06-30T02:35:05.604Z,12.00
2018-06-30T02:37:34.046Z,12.00
2018-06-30T02:40:02.532Z,12.00
2018-06-30T02:42:31.675Z,12.00
2018-06-30T02:45:00.484Z,12.00
2018-06-30T02:47:28.979Z,12.00
2018-06-30T02:49:57.652Z,12.00
2018-06-30T02:52:26.443Z,11.90
2018-06-30T02:54:55.422Z,11.90
2018-06-30T02:57:24.604Z,11.90
2018-06-30T02:59:53.139Z,11.90
2018-06-30T03:04:50.407Z,11.80
2018-06-30T03:09:47.095Z,11.70
2018-06-30T03:12:15.983Z,11.70
2018-06-30T03:14:45.206Z,11.80
2018-06-30T03:17:13.679Z,11.90
2018-06-30T03:19:42.225Z,11.90
2018-06-30T03:22:11.071Z,11.90
2018-06-30T03:24:40.040Z,11.80
2018-06-30T03:27:08.463Z,11.80
2018-06-30T03:29:37.119Z,11.70
2018-06-30T03:32:05.938Z,11.70
2018-06-30T03:34:34.422Z,11.70
2018-06-30T03:37:03.053Z,11.70
2018-06-30T03:39:32.204Z,11.70
2018-06-30T03:42:00.810Z,11.70
2018-06-30T03:44:29.483Z,11.70
2018-06-30T03:46:57.910Z,11.60
2018-06-30T03:49:26.631Z,11.60
2018-06-30T03:51:55.207Z,11.60
2018-06-30T03:54:23.990Z,11.50
2018-06-30T03:56:52.668Z,11.50
2018-06-30T03:59:21.256Z,11.50
2018-06-30T04:01:49.776Z,11.50
2018-06-30T04:04:18.347Z,11.60
2018-06-30T04:06:46.822Z,11.70
2018-06-30T04:09:15.508Z,11.70
2018-06-30T04:11:44.003Z,11.60
2018-06-30T04:14:12.586Z,11.60
2018-06-30T04:16:41.275Z,11.60
2018-06-30T04:19:14.070Z,11.60
2018-06-30T04:21:44.311Z,11.70
2018-06-30T04:26:42.293Z,11.90
2018-06-30T04:29:11.468Z,11.90
2018-06-30T04:31:40.020Z,12.00
2018-06-30T04:34:09.132Z,12.00
2018-06-30T04:36:38.980Z,12.00
2018-06-30T04:39:08.855Z,12.00
2018-06-30T04:41:37.355Z,12.00
2018-06-30T04:44:06.428Z,12.10
2018-06-30T04:46:34.961Z,12.20
2018-06-30T04:49:03.720Z,12.30
2018-06-30T04:51:32.167Z,12.40
2018-06-30T04:54:01.235Z,12.50
2018-06-30T04:56:29.747Z,12.50
2018-06-30T04:58:58.257Z,12.60
2018-06-30T05:01:26.827Z,12.70
2018-06-30T05:03:55.576Z,12.70
2018-06-30T05:06:24.024Z,12.90
2018-06-30T05:08:52.476Z,13.00
2018-06-30T05:11:22.175Z,13.10
2018-06-30T05:13:50.657Z,13.30
2018-06-30T05:16:19.303Z,13.50
2018-06-30T05:18:48.016Z,13.60
2018-06-30T05:21:17.164Z,13.80
2018-06-30T05:23:45.908Z,14.00
2018-06-30T05:26:14.507Z,14.10
2018-06-30T05:28:43.654Z,14.30
2018-06-30T05:31:12.433Z,14.40
2018-06-30T05:33:41.287Z,14.60
2018-06-30T05:36:09.851Z,14.80
2018-06-30T05:38:38.547Z,15.00
2018-06-30T05:41:07.360Z,15.20
2018-06-30T05:46:04.649Z,16.00
2018-06-30T05:48:33.382Z,16.20
2018-06-30T05:51:01.928Z,16.20
2018-06-30T05:53:30.550Z,16.40
2018-06-30T05:55:59.850Z,16.40
2018-06-30T06:00:57.015Z,16.60
2018-06-30T06:03:25.726Z,16.70
2018-06-30T06:05:54.250Z,16.80
2018-06-30T06:08:23.654Z,17.00
2018-06-30T06:10:52.200Z,17.10
2018-06-30T06:13:21.154Z,17.20
2018-06-30T06:15:49.920Z,17.30
2018-06-30T06:18:18.499Z,17.50
2018-06-30T06:20:47.033Z,17.60
2018-06-30T06:23:16.037Z,17.70
2018-06-30T06:25:44.620Z,17.90
2018-06-30T06:28:13.461Z,18.00
2018-06-30T06:30:42.818Z,18.10
2018-06-30T06:33:12.971Z,18.30
2018-06-30T06:35:42.167Z,18.30
2018-06-30T06:38:10.841Z,18.40
2018-06-30T06:40:39.500Z,18.60
2018-06-30T06:43:08.621Z,18.70
2018-06-30T06:45:38.150Z,18.80
2018-06-30T06:48:07.430Z,19.00
2018-06-30T06:50:35.982Z,19.10
2018-06-30T06:53:04.971Z,19.30
2018-06-30T06:55:33.574Z,19.50
2018-06-30T06:58:02.642Z,19.60
2018-06-30T07:00:32.513Z,19.80
2018-06-30T07:03:01.768Z,20.00
2018-06-30T07:05:30.925Z,20.10
2018-06-30T07:07:59.620Z,20.30
2018-06-30T07:10:28.162Z,20.50
2018-06-30T07:12:57.419Z,20.60
2018-06-30T07:15:26.143Z,20.70
2018-06-30T07:17:54.896Z,20.90
2018-06-30T07:20:23.804Z,21.10
2018-06-30T07:22:52.451Z,21.30
2018-06-30T07:25:21.627Z,21.40
2018-06-30T07:27:50.223Z,21.60
2018-06-30T07:30:19.251Z,21.80
2018-06-30T07:32:47.841Z,22.00
2018-06-30T07:35:16.466Z,22.10
2018-06-30T07:37:44.908Z,22.30
2018-06-30T07:40:14.206Z,22.50
2018-06-30T07:42:42.784Z,22.60
2018-06-30T07:45:11.382Z,22.80
2018-06-30T07:47:40.075Z,23.00
2018-06-30T07:50:08.577Z,23.20
2018-06-30T07:52:37.185Z,23.30
2018-06-30T07:55:06.988Z,23.50
2018-06-30T07:57:36.620Z,23.70
2018-06-30T08:00:06.068Z,23.80
2018-06-30T08:05:03.263Z,24.10
2018-06-30T08:07:31.917Z,24.10
2018-06-30T08:10:00.746Z,24.20
2018-06-30T08:12:29.996Z,24.30
2018-06-30T08:17:26.937Z,24.60
2018-06-30T08:22:24.599Z,24.90
2018-06-30T08:24:53.508Z,25.20
2018-06-30T08:27:22.468Z,25.30
2018-06-30T08:29:51.462Z,25.40
2018-06-30T08:32:20.263Z,25.40
2018-06-30T08:34:48.771Z,25.40
2018-06-30T08:37:17.294Z,25.50
2018-06-30T08:39:46.596Z,25.60
2018-06-30T08:42:15.495Z,25.80
2018-06-30T08:44:44.102Z,26.00
2018-06-30T08:47:12.749Z,26.00
2018-06-30T08:49:41.392Z,26.10
2018-06-30T08:52:10.122Z,26.20
2018-06-30T08:54:38.615Z,26.30
2018-06-30T08:57:07.164Z,26.40
2018-06-30T08:59:35.808Z,26.50
2018-06-30T09:02:04.395Z,26.30
2018-06-30T09:04:33.050Z,26.50
2018-06-30T09:07:01.546Z,26.50
2018-06-30T09:09:30.034Z,26.50
2018-06-30T09:11:58.615Z,26.70
2018-06-30T09:14:27.183Z,26.70
2018-06-30T09:16:56.059Z,26.90
2018-06-30T09:19:24.674Z,27.00
2018-06-30T09:21:53.627Z,26.90
2018-06-30T09:24:22.152Z,27.00
2018-06-30T09:26:50.633Z,27.30
2018-06-30T09:29:19.388Z,27.40
2018-06-30T09:31:48.188Z,27.40
2018-06-30T09:34:16.818Z,27.20
2018-06-30T09:36:45.300Z,27.10
2018-06-30T09:39:14.063Z,27.20
2018-06-30T09:41:42.603Z,27.30
2018-06-30T09:44:11.142Z,27.40
2018-06-30T09:46:39.632Z,27.50
2018-06-30T09:49:08.218Z,27.40
2018-06-30T09:51:37.409Z,27.30
2018-06-30T09:54:06.556Z,27.30
2018-06-30T09:56:35.207Z,27.30
2018-06-30T09:59:03.842Z,27.30
2018-06-30T10:01:32.477Z,27.60
2018-06-30T10:04:01.212Z,27.80
2018-06-30T10:06:30.878Z,27.90
2018-06-30T10:08:59.843Z,28.00
2018-06-30T10:11:28.736Z,28.00
2018-06-30T10:13:57.348Z,27.60
2018-06-30T10:16:26.043Z,27.50
2018-06-30T10:18:54.686Z,27.70
2018-06-30T10:21:23.250Z,27.70
2018-06-30T10:23:52.432Z,27.80
2018-06-30T10:26:21.071Z,27.70
2018-06-30T10:28:49.918Z,27.30
2018-06-30T10:31:18.774Z,27.30
2018-06-30T10:33:48.152Z,27.60
2018-06-30T10:36:17.579Z,28.10
2018-06-30T10:38:47.046Z,28.30
2018-06-30T10:41:15.712Z,28.40
2018-06-30T10:43:44.334Z,28.60
2018-06-30T10:46:13.026Z,28.90
2018-06-30T10:48:41.723Z,28.80
2018-06-30T10:51:10.962Z,28.90
2018-06-30T10:53:39.833Z,29.00
2018-06-30T10:56:08.367Z,29.10
2018-06-30T10:58:36.908Z,29.40
2018-06-30T11:01:05.561Z,29.60
2018-06-30T11:03:34.349Z,29.60
2018-06-30T11:06:04.131Z,29.30
2018-06-30T11:08:32.695Z,29.20
2018-06-30T11:11:01.409Z,29.40
2018-06-30T11:13:30.604Z,29.60
2018-06-30T11:15:59.364Z,29.50
2018-06-30T11:18:28.475Z,29.60
2018-06-30T11:23:25.446Z,29.80
2018-06-30T11:25:54.224Z,30.10
2018-06-30T11:28:22.712Z,30.60
2018-06-30T11:30:51.315Z,30.20
2018-06-30T11:33:21.016Z,30.50
2018-06-30T11:35:49.655Z,30.60
2018-06-30T11:38:18.384Z,30.40
2018-06-30T11:40:47.281Z,30.50
2018-06-30T11:43:15.968Z,30.80
2018-06-30T11:45:44.684Z,31.00
2018-06-30T11:48:13.268Z,30.50
2018-06-30T11:50:42.019Z,30.10
2018-06-30T11:53:10.753Z,30.20
2018-06-30T11:55:39.385Z,30.00
2018-06-30T11:58:07.932Z,30.40
2018-06-30T12:00:36.511Z,30.00
2018-06-30T12:03:05.722Z,30.40
2018-06-30T12:05:34.266Z,30.60
2018-06-30T12:08:03.207Z,30.60
2018-06-30T12:10:32.006Z,30.90
2018-06-30T12:13:00.597Z,30.70
2018-06-30T12:15:29.236Z,30.80
2018-06-30T12:17:57.809Z,30.90
2018-06-30T12:20:26.805Z,30.80
2018-06-30T12:22:55.464Z,30.70
2018-06-30T12:25:23.974Z,30.80
2018-06-30T12:27:52.675Z,31.40
2018-06-30T12:30:21.385Z,31.40
2018-06-30T12:32:49.948Z,31.00
2018-06-30T12:35:18.670Z,30.90
2018-06-30T12:37:47.186Z,30.60
2018-06-30T12:40:16.160Z,30.60
2018-06-30T12:42:44.879Z,30.60
2018-06-30T12:47:42.555Z,30.10
2018-06-30T12:50:11.452Z,30.10
2018-06-30T12:52:40.153Z,30.10
2018-06-30T12:55:08.687Z,30.40
2018-06-30T13:00:06.791Z,30.50
2018-06-30T13:02:35.462Z,30.70
2018-06-30T13:05:04.652Z,30.90
2018-06-30T13:07:33.911Z,31.20
2018-06-30T13:10:02.465Z,30.80
2018-06-30T13:12:31.080Z,31.10
2018-06-30T13:14:59.559Z,31.00
2018-06-30T13:17:28.877Z,30.80
2018-06-30T13:19:58.179Z,30.90
2018-06-30T13:22:27.266Z,31.40
2018-06-30T13:24:56.035Z,30.90
2018-06-30T13:27:24.639Z,30.40
2018-06-30T13:29:53.974Z,30.20
2018-06-30T13:32:22.714Z,30.50
2018-06-30T13:34:51.415Z,30.60
2018-06-30T13:37:19.965Z,30.50
2018-06-30T13:39:48.458Z,30.90
2018-06-30T13:42:16.972Z,31.00
2018-06-30T13:44:45.774Z,31.50
2018-06-30T13:47:14.447Z,32.00
2018-06-30T13:49:43.060Z,32.40
2018-06-30T13:52:11.632Z,32.30
2018-06-30T13:54:41.103Z,32.30
2018-06-30T13:57:09.703Z,32.20
2018-06-30T13:59:41.705Z,32.30
2018-06-30T14:02:10.897Z,33.20
2018-06-30T14:04:41.637Z,34.60
2018-06-30T14:07:10.281Z,35.70
2018-06-30T14:12:07.716Z,35.90
2018-06-30T14:14:36.319Z,34.60
2018-06-30T14:17:05.313Z,33.90
2018-06-30T14:19:34.164Z,35.20
2018-06-30T14:22:02.719Z,36.50
2018-06-30T14:24:31.599Z,36.30
2018-06-30T14:27:00.286Z,36.50
2018-06-30T14:31:57.269Z,35.20
2018-06-30T14:34:25.916Z,34.20
2018-06-30T14:36:54.395Z,33.80
2018-06-30T14:39:22.999Z,34.20
2018-06-30T14:41:51.837Z,35.70
2018-06-30T14:44:26.146Z,37.20
2018-06-30T14:46:55.328Z,37.40
2018-06-30T14:49:25.071Z,38.50
2018-06-30T14:51:54.016Z,39.30
2018-06-30T14:54:23.503Z,39.30
2018-06-30T14:56:52.847Z,38.90
2018-06-30T14:59:22.069Z,39.20
2018-06-30T15:01:50.575Z,38.50
2018-06-30T15:04:19.423Z,39.00
2018-06-30T15:06:48.941Z,39.00
2018-06-30T15:09:17.858Z,38.90
2018-06-30T15:11:46.465Z,39.20
2018-06-30T15:14:15.855Z,38.70
2018-06-30T15:16:44.489Z,39.10
2018-06-30T15:19:13.238Z,39.60
2018-06-30T15:21:42.096Z,39.50
2018-06-30T15:24:10.615Z,39.50
2018-06-30T15:26:39.317Z,40.00
2018-06-30T15:29:07.861Z,40.50
2018-06-30T15:31:36.460Z,39.40
2018-06-30T15:34:05.127Z,39.20
2018-06-30T15:36:33.832Z,38.80
2018-06-30T15:39:02.408Z,39.80
2018-06-30T15:41:31.910Z,39.80
2018-06-30T15:44:01.495Z,38.90
2018-06-30T15:46:30.087Z,38.50
2018-06-30T15:48:58.659Z,39.00
2018-06-30T15:51:27.414Z,39.20
2018-06-30T15:56:25.077Z,39.70
2018-06-30T15:58:53.828Z,40.40
2018-06-30T16:01:22.378Z,40.60
2018-06-30T16:03:50.979Z,39.50
2018-06-30T16:06:19.600Z,39.50
2018-06-30T16:08:48.195Z,40.00
2018-06-30T16:11:16.795Z,39.10
2018-06-30T16:13:46.024Z,38.50
2018-06-30T16:16:15.364Z,38.50
2018-06-30T16:18:44.336Z,37.70
2018-06-30T16:21:13.053Z,37.90
2018-06-30T16:23:42.027Z,38.40
2018-06-30T16:26:10.854Z,38.90
2018-06-30T16:28:39.470Z,38.40
2018-06-30T16:31:08.019Z,37.80
2018-06-30T16:33:36.842Z,37.00
2018-06-30T16:36:05.816Z,37.10
2018-06-30T16:38:34.403Z,37.20
2018-06-30T16:41:03.755Z,36.80
2018-06-30T16:43:32.440Z,36.60
2018-06-30T16:48:29.494Z,37.50
2018-06-30T16:50:58.528Z,38.40
2018-06-30T16:53:27.052Z,37.70
2018-06-30T16:55:55.948Z,37.40
2018-06-30T16:58:24.452Z,37.20
2018-06-30T17:00:53.022Z,37.00
2018-06-30T17:03:22.526Z,36.10
2018-06-30T17:05:51.343Z,35.70
2018-06-30T17:08:20.110Z,35.60
2018-06-30T17:10:48.615Z,35.20
2018-06-30T17:13:17.439Z,35.50
2018-06-30T17:15:45.910Z,35.60
2018-06-30T17:18:14.469Z,34.70
2018-06-30T17:20:43.215Z,35.50
2018-06-30T17:23:11.867Z,35.90
2018-06-30T17:25:40.385Z,35.70
2018-06-30T17:28:09.125Z,36.10
2018-06-30T17:30:37.798Z,35.80
2018-06-30T17:33:06.935Z,35.70
2018-06-30T17:35:35.726Z,35.30
2018-06-30T17:38:04.285Z,34.40
2018-06-30T17:40:33.204Z,34.50
2018-06-30T17:43:01.910Z,34.30
2018-06-30T17:45:30.536Z,34.10
2018-06-30T17:47:59.116Z,34.40
2018-06-30T17:50:27.835Z,34.40
2018-06-30T17:52:56.652Z,34.50
2018-06-30T17:55:25.137Z,34.50
2018-06-30T17:57:53.799Z,33.70
2018-06-30T18:00:22.438Z,33.80
2018-06-30T18:02:51.104Z,34.00
2018-06-30T18:05:19.607Z,33.70
2018-06-30T18:07:48.423Z,33.30
2018-06-30T18:10:17.175Z,32.10
2018-06-30T18:12:45.908Z,30.80
2018-06-30T18:15:14.401Z,30.10
2018-06-30T18:17:43.701Z,29.00
2018-06-30T18:20:12.987Z,28.20
2018-06-30T18:22:41.757Z,27.80
2018-06-30T18:25:10.904Z,27.60
2018-06-30T18:27:39.503Z,27.30
2018-06-30T18:30:08.223Z,26.90
2018-06-30T18:32:36.982Z,27.00
2018-06-30T18:35:06.039Z,26.70
2018-06-30T18:37:34.665Z,26.60
2018-06-30T18:40:03.748Z,26.40
2018-06-30T18:42:32.525Z,26.10
2018-06-30T18:45:01.090Z,26.10
2018-06-30T18:47:29.672Z,26.10
2018-06-30T18:49:58.238Z,25.90
2018-06-30T18:52:26.866Z,25.70
2018-06-30T18:54:56.108Z,25.50
2018-06-30T18:59:52.927Z,25.40
2018-06-30T19:02:21.840Z,25.30
2018-06-30T19:04:51.423Z,25.10
2018-06-30T19:07:20.035Z,25.00
2018-06-30T19:12:17.505Z,24.80
2018-06-30T19:14:46.087Z,24.70
2018-06-30T19:17:14.716Z,24.40
2018-06-30T19:19:43.474Z,24.20
2018-06-30T19:22:12.191Z,24.10
2018-06-30T19:24:40.864Z,23.90
2018-06-30T19:27:09.479Z,23.80
2018-06-30T19:29:38.045Z,23.70
2018-06-30T19:32:06.703Z,23.40
2018-06-30T19:34:35.262Z,23.20
2018-06-30T19:37:04.117Z,23.10
2018-06-30T19:39:33.104Z,23.10
2018-06-30T19:42:01.669Z,22.90
2018-06-30T19:44:30.276Z,22.70
2018-06-30T19:46:59.231Z,22.60
2018-06-30T19:49:27.753Z,22.40
2018-06-30T19:51:56.657Z,22.20
2018-06-30T19:54:25.317Z,21.90
2018-06-30T19:56:54.347Z,21.70
2018-06-30T20:01:51.136Z,21.40
2018-06-30T20:04:19.682Z,21.20
2018-06-30T20:06:48.295Z,21.10
2018-06-30T20:09:16.898Z,21.10
2018-06-30T20:11:45.458Z,20.90
2018-06-30T20:14:14.047Z,20.70
2018-06-30T20:16:42.667Z,20.60
2018-06-30T20:19:11.330Z,20.40
2018-06-30T20:21:40.297Z,20.10
2018-06-30T20:24:08.910Z,19.80
2018-06-30T20:26:37.606Z,19.70
2018-06-30T20:29:06.142Z,19.40
2018-06-30T20:31:34.928Z,19.10
2018-06-30T20:34:03.529Z,19.00
2018-06-30T20:36:32.163Z,19.00
2018-06-30T20:39:01.049Z,18.90
2018-06-30T20:41:29.549Z,18.80
2018-06-30T20:43:58.206Z,18.70
2018-06-30T20:46:26.816Z,18.60
2018-06-30T20:48:55.330Z,18.40
2018-06-30T20:51:24.411Z,18.30
2018-06-30T20:53:53.051Z,18.20
2018-06-30T20:56:21.728Z,18.20
2018-06-30T20:58:50.286Z,18.10
2018-06-30T21:01:19.119Z,18.00
2018-06-30T21:03:47.599Z,18.00
2018-06-30T21:06:16.340Z,18.00
2018-06-30T21:08:45.182Z,18.00
2018-06-30T21:11:13.959Z,18.00
2018-06-30T21:13:42.720Z,18.00
2018-06-30T21:16:11.354Z,18.10
2018-06-30T21:18:39.945Z,18.20
2018-06-30T21:21:09.126Z,18.20
2018-06-30T21:23:37.989Z,18.20
2018-06-30T21:28:34.939Z,18.10
2018-06-30T21:33:32.424Z,18.00
2018-06-30T21:36:01.023Z,18.00
2018-06-30T21:38:29.629Z,17.90
2018-06-30T21:40:58.416Z,17.80
2018-06-30T21:43:27.134Z,17.90
2018-06-30T21:45:55.919Z,17.80
2018-06-30T21:48:24.647Z,17.80
2018-06-30T21:53:22.218Z,17.50
2018-06-30T21:55:50.738Z,17.30
2018-06-30T21:58:19.432Z,17.20
2018-06-30T22:00:53.371Z,17.10
2018-06-30T22:03:26.367Z,17.00
2018-06-30T22:05:56.362Z,16.80
2018-06-30T22:08:25.013Z,16.70
2018-06-30T22:10:53.955Z,16.50
2018-06-30T22:13:22.423Z,16.40
2018-06-30T22:15:51.301Z,16.30
2018-06-30T22:18:19.934Z,16.30
2018-06-30T22:20:48.436Z,16.30
2018-06-30T22:23:16.920Z,16.20
2018-06-30T22:25:45.609Z,16.10
2018-06-30T22:28:14.370Z,16.10
2018-06-30T22:30:43.091Z,16.00
2018-06-30T22:33:11.580Z,15.90
2018-06-30T22:35:40.290Z,15.90
2018-06-30T22:38:09.041Z,15.70
2018-06-30T22:40:37.582Z,15.70
2018-06-30T22:43:06.592Z,15.50
2018-06-30T22:45:35.098Z,15.50
2018-06-30T22:48:03.666Z,15.30
2018-06-30T22:50:32.379Z,15.30
2018-06-30T22:53:01.000Z,15.20
2018-06-30T22:55:29.891Z,15.20
2018-06-30T22:57:58.491Z,15.10
2018-06-30T23:00:27.243Z,14.90
2018-06-30T23:02:55.965Z,14.80
2018-06-30T23:05:24.688Z,14.70
2018-06-30T23:07:53.624Z,14.70
2018-06-30T23:10:22.960Z,14.70
2018-06-30T23:12:51.563Z,14.70
2018-06-30T23:15:20.543Z,14.70
2018-06-30T23:17:49.119Z,14.70
2018-06-30T23:20:17.783Z,14.50
2018-06-30T23:22:53.946Z,14.50
2018-06-30T23:25:22.928Z,14.30
2018-06-30T23:27:51.591Z,14.20
2018-06-30T23:30:20.154Z,14.10
2018-06-30T23:32:49.102Z,14.00
2018-06-30T23:35:24.567Z,14.00
2018-06-30T23:37:54.482Z,13.80
2018-06-30T23:40:23.451Z,13.70
2018-06-30T23:42:52.292Z,13.70
2018-06-30T23:45:21.635Z,13.60
2018-06-30T23:47:51.040Z,13.70
2018-06-30T23:50:20.750Z,13.70
2018-06-30T23:52:49.643Z,13.60
2018-06-30T23:55:18.452Z,13.50
